sensor_id;sensor_type;location;lat;lon;timestamp;P1;durP1;ratioP1;P2;durP2;ratioP2
10884;SDS011;5495;53.252;10.390;2023-04-05T04:03:35;5.00;;;2.10;;
10884;SDS011;5495;53.252;10.390;2023-04-05T04:06:15;4.50;;;1.80;;
10884;SDS011;5495;53.252;10.390;2023-04-05T04:09:05;4.73;;;1.70;;
10884;SDS011;5495;53.252;10.390;2023-04-05T04:11:40;3.63;;;1.97;;
10884;SDS011;5495;53.252;10.390;2023-04-05T04:14:15;2.13;;;1.70;;
10884;SDS011;5495;53.252;10.390;2023-04-05T04:16:47;3.87;;;1.93;;
10884;SDS011;5495;53.252;10.390;2023-04-05T04:19:18;6.83;;;1.67;;
10884;SDS011;5495;53.252;10.390;2023-04-05T04:21:45;2.37;;;1.70;;
10884;SDS011;5495;53.252;10.390;2023-04-05T04:24:25;5.30;;;2.00;;
10884;SDS011;5495;53.252;10.390;2023-04-05T04:27:05;5.13;;;2.03;;
10884;SDS011;5495;53.252;10.390;2023-04-05T04:29:52;1.63;;;1.53;;
10884;SDS011;5495;53.252;10.390;2023-04-05T04:32:28;5.57;;;1.90;;
10884;SDS011;5495;53.252;10.390;2023-04-05T04:35:14;3.23;;;2.00;;
10884;SDS011;5495;53.252;10.390;2023-04-05T04:38:02;4.30;;;2.40;;
10884;SDS011;5495;53.252;10.390;2023-04-05T04:40:32;6.67;;;2.17;;
10884;SDS011;5495;53.252;10.390;2023-04-05T04:43:04;4.67;;;2.30;;
10884;SDS011;5495;53.252;10.390;2023-04-05T04:45:38;5.80;;;2.30;;
10884;SDS011;5495;53.252;10.390;2023-04-05T04:48:11;3.17;;;2.33;;
10884;SDS011;5495;53.252;10.390;2023-04-05T04:50:45;7.10;;;3.00;;
10884;SDS011;5495;53.252;10.390;2023-04-05T04:53:15;4.13;;;2.83;;
10884;SDS011;5495;53.252;10.390;2023-04-05T04:55:48;4.33;;;2.00;;
10884;SDS011;5495;53.252;10.390;2023-04-05T04:58:15;3.70;;;2.20;;
10884;SDS011;5495;53.252;10.390;2023-04-05T05:00:45;5.27;;;2.60;;
10884;SDS011;5495;53.252;10.390;2023-04-05T05:03:12;3.13;;;2.27;;
10884;SDS011;5495;53.252;10.390;2023-04-05T05:05:41;3.80;;;2.37;;
10884;SDS011;5495;53.252;10.390;2023-04-05T05:08:21;3.53;;;2.30;;
10884;SDS011;5495;53.252;10.390;2023-04-05T05:10:53;3.23;;;1.93;;
10884;SDS011;5495;53.252;10.390;2023-04-05T05:13:20;3.50;;;2.30;;
10884;SDS011;5495;53.252;10.390;2023-04-05T05:15:47;4.40;;;2.40;;
10884;SDS011;5495;53.252;10.390;2023-04-05T05:18:17;4.73;;;2.07;;
10884;SDS011;5495;53.252;10.390;2023-04-05T05:20:49;4.97;;;2.70;;
10884;SDS011;5495;53.252;10.390;2023-04-05T05:23:24;4.07;;;2.37;;
10884;SDS011;5495;53.252;10.390;2023-04-05T05:25:57;3.10;;;2.10;;
10884;SDS011;5495;53.252;10.390;2023-04-05T05:28:25;4.23;;;2.30;;
10884;SDS011;5495;53.252;10.390;2023-04-05T05:30:53;3.07;;;2.30;;
10884;SDS011;5495;53.252;10.390;2023-04-05T05:33:20;4.03;;;2.73;;
10884;SDS011;5495;53.252;10.390;2023-04-05T05:35:47;4.20;;;2.07;;
10884;SDS011;5495;53.252;10.390;2023-04-05T05:38:18;4.10;;;2.07;;
10884;SDS011;5495;53.252;10.390;2023-04-05T05:40:53;4.60;;;2.60;;
10884;SDS011;5495;53.252;10.390;2023-04-05T05:43:25;6.23;;;2.17;;
10884;SDS011;5495;53.252;10.390;2023-04-05T05:45:59;3.07;;;2.00;;
10884;SDS011;5495;53.252;10.390;2023-04-05T05:48:27;4.77;;;2.30;;
10884;SDS011;5495;53.252;10.390;2023-04-05T05:51:18;7.47;;;2.33;;
10884;SDS011;5495;53.252;10.390;2023-04-05T05:53:59;3.03;;;2.53;;
10884;SDS011;5495;53.252;10.390;2023-04-05T05:56:36;3.17;;;2.47;;
10884;SDS011;5495;53.252;10.390;2023-04-05T05:59:09;5.20;;;2.57;;
10884;SDS011;5495;53.252;10.390;2023-04-05T06:01:41;4.67;;;2.80;;
10884;SDS011;5495;53.252;10.390;2023-04-05T06:04:28;5.60;;;3.00;;
10884;SDS011;5495;53.252;10.390;2023-04-05T06:06:58;4.27;;;2.33;;
10884;SDS011;5495;53.252;10.390;2023-04-05T06:09:26;2.70;;;2.00;;
10884;SDS011;5495;53.252;10.390;2023-04-05T06:11:54;2.97;;;1.83;;
10884;SDS011;5495;53.252;10.390;2023-04-05T06:14:22;2.67;;;1.80;;
10884;SDS011;5495;53.252;10.390;2023-04-05T06:16:50;3.40;;;1.90;;
10884;SDS011;5495;53.252;10.390;2023-04-05T06:19:17;6.27;;;1.73;;
10884;SDS011;5495;53.252;10.390;2023-04-05T06:21:44;2.43;;;2.00;;
10884;SDS011;5495;53.252;10.390;2023-04-05T06:24:14;5.53;;;2.00;;
10884;SDS011;5495;53.252;10.390;2023-04-05T06:26:41;5.17;;;2.07;;
10884;SDS011;5495;53.252;10.390;2023-04-05T06:29:10;4.70;;;2.50;;
10884;SDS011;5495;53.252;10.390;2023-04-05T06:31:37;3.00;;;1.90;;
10884;SDS011;5495;53.252;10.390;2023-04-05T06:34:05;2.93;;;2.10;;
10884;SDS011;5495;53.252;10.390;2023-04-05T06:36:38;3.20;;;2.07;;
10884;SDS011;5495;53.252;10.390;2023-04-05T06:39:11;3.43;;;2.07;;
10884;SDS011;5495;53.252;10.390;2023-04-05T06:41:39;3.33;;;2.13;;
10884;SDS011;5495;53.252;10.390;2023-04-05T06:44:06;4.33;;;2.50;;
10884;SDS011;5495;53.252;10.390;2023-04-05T06:46:37;3.07;;;2.20;;
10884;SDS011;5495;53.252;10.390;2023-04-05T06:49:04;4.50;;;2.27;;
10884;SDS011;5495;53.252;10.390;2023-04-05T06:51:36;4.50;;;2.10;;
10884;SDS011;5495;53.252;10.390;2023-04-05T06:54:06;4.60;;;2.37;;
10884;SDS011;5495;53.252;10.390;2023-04-05T06:56:36;4.40;;;2.50;;
10884;SDS011;5495;53.252;10.390;2023-04-05T06:59:06;4.37;;;2.70;;
10884;SDS011;5495;53.252;10.390;2023-04-05T07:01:40;5.90;;;2.77;;
10884;SDS011;5495;53.252;10.390;2023-04-05T07:04:19;5.33;;;3.00;;
10884;SDS011;5495;53.252;10.390;2023-04-05T07:06:50;5.57;;;2.93;;
10884;SDS011;5495;53.252;10.390;2023-04-05T07:09:29;5.73;;;3.50;;
10884;SDS011;5495;53.252;10.390;2023-04-05T07:11:57;7.77;;;3.77;;
10884;SDS011;5495;53.252;10.390;2023-04-05T07:14:25;6.50;;;3.33;;
10884;SDS011;5495;53.252;10.390;2023-04-05T07:17:00;7.93;;;3.57;;
10884;SDS011;5495;53.252;10.390;2023-04-05T07:19:32;3.93;;;2.80;;
10884;SDS011;5495;53.252;10.390;2023-04-05T07:21:59;3.70;;;2.30;;
10884;SDS011;5495;53.252;10.390;2023-04-05T07:24:38;3.63;;;2.50;;
10884;SDS011;5495;53.252;10.390;2023-04-05T07:27:12;5.83;;;3.57;;
10884;SDS011;5495;53.252;10.390;2023-04-05T07:29:40;5.07;;;3.00;;
10884;SDS011;5495;53.252;10.390;2023-04-05T07:32:11;6.43;;;2.50;;
10884;SDS011;5495;53.252;10.390;2023-04-05T07:34:41;3.83;;;2.30;;
10884;SDS011;5495;53.252;10.390;2023-04-05T07:37:13;3.23;;;2.10;;
10884;SDS011;5495;53.252;10.390;2023-04-05T07:39:48;5.13;;;2.00;;
10884;SDS011;5495;53.252;10.390;2023-04-05T07:42:20;3.63;;;2.13;;
10884;SDS011;5495;53.252;10.390;2023-04-05T07:45:06;3.93;;;2.20;;
10884;SDS011;5495;53.252;10.390;2023-04-05T07:47:48;2.80;;;1.77;;
10884;SDS011;5495;53.252;10.390;2023-04-05T07:50:27;3.90;;;2.00;;
10884;SDS011;5495;53.252;10.390;2023-04-05T07:52:59;2.67;;;1.80;;
10884;SDS011;5495;53.252;10.390;2023-04-05T07:55:49;4.03;;;2.03;;
10884;SDS011;5495;53.252;10.390;2023-04-05T07:58:25;2.47;;;1.70;;
10884;SDS011;5495;53.252;10.390;2023-04-05T08:01:00;4.00;;;1.50;;
10884;SDS011;5495;53.252;10.390;2023-04-05T08:03:34;3.87;;;1.80;;
10884;SDS011;5495;53.252;10.390;2023-04-05T08:06:13;2.33;;;1.60;;
10884;SDS011;5495;53.252;10.390;2023-04-05T08:08:51;1.63;;;1.20;;
10884;SDS011;5495;53.252;10.390;2023-04-05T08:11:31;1.63;;;1.20;;
10884;SDS011;5495;53.252;10.390;2023-04-05T08:14:12;4.77;;;1.60;;
10884;SDS011;5495;53.252;10.390;2023-04-05T08:23:00;2.57;;;1.27;;
10884;SDS011;5495;53.252;10.390;2023-04-05T08:25:45;1.73;;;1.03;;
10884;SDS011;5495;53.252;10.390;2023-04-05T08:28:28;3.33;;;1.10;;
10884;SDS011;5495;53.252;10.390;2023-04-05T08:34:03;0.97;;;0.50;;
10884;SDS011;5495;53.252;10.390;2023-04-05T08:36:35;2.40;;;0.80;;
10884;SDS011;5495;53.252;10.390;2023-04-05T08:39:03;5.77;;;1.13;;
10884;SDS011;5495;53.252;10.390;2023-04-05T08:41:34;1.30;;;0.97;;
10884;SDS011;5495;53.252;10.390;2023-04-05T08:44:08;1.13;;;0.60;;
10884;SDS011;5495;53.252;10.390;2023-04-05T08:46:37;0.90;;;0.70;;
10884;SDS011;5495;53.252;10.390;2023-04-05T08:49:05;0.90;;;0.60;;
10884;SDS011;5495;53.252;10.390;2023-04-05T08:51:37;1.23;;;0.67;;
10884;SDS011;5495;53.252;10.390;2023-04-05T08:54:07;1.23;;;0.70;;
10884;SDS011;5495;53.252;10.390;2023-04-05T08:59:23;2.10;;;0.80;;
10884;SDS011;5495;53.252;10.390;2023-04-05T09:01:56;0.90;;;0.80;;
10884;SDS011;5495;53.252;10.390;2023-04-05T09:04:25;1.43;;;0.90;;
10884;SDS011;5495;53.252;10.390;2023-04-05T09:07:00;1.20;;;0.90;;
10884;SDS011;5495;53.252;10.390;2023-04-05T09:09:34;2.83;;;1.10;;
